Time;durP1;ratioP1;P1;durP2;ratioP2;P2;SDS_P1;SDS_P2;PMS_P1;PMS_P2;Temp;Humidity;BMP_temperature;BMP_pressure;BME280_temperature;BME280_humidity;BME280_pressure;Samples;Min_cycle;Max_cycle;Signal;HPM_P1;HPM_P2
2023/12/05 00:01:37;;;;;;;28.33;14.60;;;-2.10;99.90;;;;;;9665316;23;20181;-90
2023/12/05 00:05:22;;;;;;;28.43;14.60;;;-2.10;99.90;;;;;;9665477;23;20208;-90
2023/12/05 00:09:08;;;;;;;27.70;14.70;;;-2.10;99.90;;;;;;9665333;23;20168;-90
2023/12/05 00:12:54;;;;;;;29.23;14.27;;;-2.10;99.90;;;;;;9691903;23;20162;-90
2023/12/05 00:16:39;;;;;;;26.03;14.43;;;-2.10;99.90;;;;;;9665026;23;20188;-90
2023/12/05 00:20:25;;;;;;;26.93;14.07;;;-2.10;99.90;;;;;;9664971;23;20157;-90
2023/12/05 00:24:10;;;;;;;28.13;14.40;;;-2.10;99.90;;;;;;9665099;23;20156;-91
2023/12/05 00:27:56;;;;;;;25.47;13.67;;;-2.10;99.90;;;;;;9665467;23;20177;-90
2023/12/05 00:31:42;;;;;;;26.53;14.20;;;-2.10;99.90;;;;;;9664861;23;20184;-90
2023/12/05 00:35:28;;;;;;;28.47;14.40;;;-2.10;99.90;;;;;;9664875;23;20695;-91
2023/12/05 00:39:14;;;;;;;24.33;13.33;;;-2.10;99.90;;;;;;9664733;23;20621;-90
2023/12/05 00:43:00;;;;;;;26.63;13.47;;;-2.00;99.90;;;;;;9691661;23;20321;-90
2023/12/05 00:46:46;;;;;;;31.70;13.73;;;-2.10;99.90;;;;;;9664514;23;20181;-90
2023/12/05 00:50:31;;;;;;;27.13;13.90;;;-2.10;99.90;;;;;;9664697;23;20157;-91
2023/12/05 00:54:17;;;;;;;28.47;13.80;;;-2.10;99.90;;;;;;9664774;23;20161;-91
2023/12/05 00:58:03;;;;;;;27.77;13.53;;;-2.10;99.90;;;;;;9664328;23;20187;-90
2023/12/05 01:01:48;;;;;;;26.77;13.60;;;-2.10;99.90;;;;;;9664525;23;20191;-90
2023/12/05 01:05:34;;;;;;;23.17;12.13;;;-2.20;99.90;;;;;;9664464;23;20221;-90
2023/12/05 01:09:20;;;;;;;27.60;12.83;;;-2.10;99.90;;;;;;9664038;23;20631;-91
2023/12/05 01:13:06;;;;;;;23.43;12.13;;;-2.10;99.90;;;;;;9666365;23;20161;-89
2023/12/05 01:16:51;;;;;;;27.57;13.47;;;-2.30;99.90;;;;;;9691913;23;20175;-89
2023/12/05 01:20:37;;;;;;;26.17;13.43;;;-2.10;99.90;;;;;;9665236;23;20179;-90
2023/12/05 01:24:23;;;;;;;23.77;12.37;;;-2.10;99.90;;;;;;9691887;23;20156;-89
2023/12/05 01:28:08;;;;;;;26.50;12.60;;;-2.10;99.90;;;;;;9692873;23;20177;-90
2023/12/05 01:31:54;;;;;;;23.30;12.97;;;-2.10;99.90;;;;;;9666739;23;20703;-89
2023/12/05 01:35:39;;;;;;;28.97;13.30;;;-2.00;99.90;;;;;;9665782;23;20659;-90
2023/12/05 01:39:25;;;;;;;26.53;13.53;;;-2.10;99.90;;;;;;9663801;23;20635;-90
2023/12/05 01:43:11;;;;;;;24.73;13.23;;;-2.10;99.90;;;;;;9666023;23;20157;-90
2023/12/05 01:46:57;;;;;;;24.93;12.53;;;-2.10;99.90;;;;;;9665156;23;20191;-89
2023/12/05 01:50:43;;;;;;;25.13;13.17;;;-2.10;99.90;;;;;;9665993;23;20190;-89
2023/12/05 01:54:31;;;;;;;26.67;12.83;;;-2.10;99.90;;;;;;9665330;23;20605;-90
2023/12/05 01:58:20;;;;;;;23.50;12.17;;;-2.10;99.90;;;;;;9665241;23;20657;-90
2023/12/05 02:02:06;;;;;;;26.53;12.80;;;-2.10;99.90;;;;;;9665392;23;20201;-90
2023/12/05 02:05:52;;;;;;;20.57;11.93;;;-2.10;99.90;;;;;;9665529;23;20201;-89
2023/12/05 02:09:39;;;;;;;25.63;13.30;;;-2.10;99.90;;;;;;9665124;23;20660;-90
2023/12/05 02:13:24;;;;;;;25.97;12.37;;;-2.00;99.90;;;;;;9664971;23;20367;-90
2023/12/05 02:17:32;;;;;;;23.00;11.77;;;-2.00;99.90;;;;;;9664683;23;20186;-90
2023/12/05 02:21:26;;;;;;;21.60;11.47;;;-2.00;99.90;;;;;;9665040;23;20219;-90
2023/12/05 02:25:32;;;;;;;23.33;12.43;;;-1.90;99.90;;;;;;9665056;23;20173;-90
2023/12/05 02:29:18;;;;;;;23.13;11.83;;;-2.00;99.90;;;;;;9665449;23;20174;-90
2023/12/05 02:33:04;;;;;;;23.10;11.63;;;-2.00;99.90;;;;;;9665072;23;20249;-90
2023/12/05 02:37:15;;;;;;;24.60;12.10;;;-2.00;99.90;;;;;;9664613;23;20213;-90
2023/12/05 02:41:18;;;;;;;25.30;12.37;;;-2.00;99.90;;;;;;9691712;23;20153;-90
2023/12/05 02:45:07;;;;;;;21.53;12.03;;;-2.00;99.90;;;;;;9664346;23;20144;-90
2023/12/05 02:48:54;;;;;;;21.10;12.40;;;-2.00;99.90;;;;;;9691209;23;20262;-88
2023/12/05 02:52:40;;;;;;;22.47;12.40;;;-2.10;99.90;;;;;;9664460;23;20172;-90
2023/12/05 02:56:25;;;;;;;22.70;11.90;;;-2.10;99.90;;;;;;9663700;23;20177;-90
2023/12/05 03:00:12;;;;;;;23.37;12.90;;;-2.10;99.90;;;;;;9664198;23;20158;-89
2023/12/05 03:03:57;;;;;;;21.43;12.20;;;-2.10;99.90;;;;;;9663389;23;20167;-90
2023/12/05 03:07:43;;;;;;;22.50;11.83;;;-2.20;99.90;;;;;;9664151;23;20192;-89
2023/12/05 03:11:29;;;;;;;20.43;11.50;;;-2.20;99.90;;;;;;9664719;23;20233;-90
2023/12/05 03:15:15;;;;;;;23.20;12.07;;;-2.20;99.90;;;;;;9664052;23;20220;-90
2023/12/05 03:19:01;;;;;;;23.47;12.23;;;-2.20;99.90;;;;;;9664921;23;20178;-90
2023/12/05 03:22:46;;;;;;;21.87;11.93;;;-2.20;99.90;;;;;;9665090;23;20157;-90
2023/12/05 03:26:32;;;;;;;23.23;12.37;;;-2.20;99.90;;;;;;9664636;23;20189;-90
2023/12/05 03:30:17;;;;;;;23.00;11.73;;;-2.20;99.90;;;;;;9664600;23;20173;-89
2023/12/05 03:34:03;;;;;;;22.03;11.57;;;-2.20;99.90;;;;;;9691994;23;20146;-89
2023/12/05 03:37:49;;;;;;;24.20;11.77;;;-2.20;99.90;;;;;;9664391;23;20189;-90
2023/12/05 03:41:35;;;;;;;23.07;11.60;;;-2.20;99.90;;;;;;9664679;23;20157;-90
2023/12/05 03:45:20;;;;;;;26.50;12.37;;;-2.20;99.90;;;;;;9690861;23;20148;-89
2023/12/05 03:49:06;;;;;;;23.87;11.97;;;-2.20;99.90;;;;;;9691598;23;20149;-90
2023/12/05 03:52:51;;;;;;;26.37;12.63;;;-2.20;99.90;;;;;;9691525;23;20154;-90
2023/12/05 03:56:37;;;;;;;23.83;12.13;;;-2.20;99.90;;;;;;9664085;23;20177;-90
2023/12/05 04:00:23;;;;;;;23.97;11.60;;;-2.20;99.90;;;;;;9665183;23;20168;-90
2023/12/05 04:04:09;;;;;;;21.30;11.53;;;-2.10;99.90;;;;;;9664181;23;20244;-89
2023/12/05 04:07:54;;;;;;;24.77;12.50;;;-2.10;99.90;;;;;;9664691;23;20205;-90
2023/12/05 04:11:41;;;;;;;26.10;12.40;;;-2.10;99.90;;;;;;9664471;23;20162;-90
2023/12/05 04:15:26;;;;;;;23.33;12.03;;;-2.10;99.90;;;;;;9664029;23;20188;-90
2023/12/05 04:19:15;;;;;;;23.73;12.20;;;-2.10;99.90;;;;;;9664245;23;20187;-89
2023/12/05 04:23:01;;;;;;;26.23;11.90;;;-2.20;99.90;;;;;;9664196;23;20577;-90
2023/12/05 04:26:47;;;;;;;21.63;11.97;;;-2.10;99.90;;;;;;9690702;23;20541;-90
2023/12/05 04:30:32;;;;;;;21.57;10.80;;;-2.20;99.90;;;;;;9663609;23;20236;-90
2023/12/05 04:34:18;;;;;;;24.87;12.33;;;-2.20;99.90;;;;;;9664215;23;20162;-90
2023/12/05 04:38:04;;;;;;;23.47;11.67;;;-2.20;99.90;;;;;;9664203;23;20185;-89
2023/12/05 04:41:49;;;;;;;22.90;11.97;;;-2.20;99.90;;;;;;9691026;23;20159;-89
2023/12/05 04:45:35;;;;;;;25.20;13.03;;;-2.30;99.90;;;;;;9665721;23;20175;-90
2023/12/05 04:49:20;;;;;;;21.40;11.67;;;-2.30;99.90;;;;;;9666574;23;20157;-90
2023/12/05 04:53:06;;;;;;;24.27;12.27;;;-2.30;99.90;;;;;;9667080;23;20590;-90
2023/12/05 04:56:52;;;;;;;22.50;11.40;;;-2.30;99.90;;;;;;9665786;23;20668;-89
2023/12/05 05:00:37;;;;;;;24.80;12.70;;;-2.30;99.90;;;;;;9693531;23;20531;-89
2023/12/05 05:04:23;;;;;;;21.43;11.73;;;-2.30;99.90;;;;;;9666281;23;20211;-90
2023/12/05 05:08:08;;;;;;;22.97;11.43;;;-2.30;99.90;;;;;;9665906;23;20246;-89
2023/12/05 05:11:54;;;;;;;25.43;11.90;;;-2.30;99.90;;;;;;9666071;23;20161;-89
2023/12/05 05:15:40;;;;;;;20.47;10.70;;;-2.30;99.90;;;;;;9665230;23;20267;-90
2023/12/05 05:19:25;;;;;;;26.70;11.50;;;-2.30;99.90;;;;;;9665360;23;20186;-89
2023/12/05 05:23:14;;;;;;;20.43;11.00;;;-2.30;99.90;;;;;;9665057;23;20246;-89
2023/12/05 05:27:00;;;;;;;20.47;11.30;;;-2.20;99.90;;;;;;9665748;23;20241;-90
2023/12/05 05:30:46;;;;;;;22.00;11.20;;;-2.30;99.90;;;;;;9666077;23;20177;-89
2023/12/05 05:34:31;;;;;;;20.77;11.27;;;-2.30;99.90;;;;;;9666541;23;20163;-90
2023/12/05 05:38:17;;;;;;;21.70;11.57;;;-2.30;99.90;;;;;;9665942;23;20206;-89
2023/12/05 05:42:10;;;;;;;25.87;12.40;;;-2.30;99.90;;;;;;9665334;23;20167;-89
2023/12/05 05:45:56;;;;;;;23.00;12.07;;;-2.40;99.90;;;;;;9671123;23;20237;-90
2023/12/05 05:49:43;;;;;;;22.97;11.80;;;-2.30;99.90;;;;;;9707123;22;20161;-91
2023/12/05 05:53:28;;;;;;;23.50;11.50;;;-2.30;99.90;;;;;;9710555;22;20153;-90
2023/12/05 05:57:35;;;;;;;22.10;11.83;;;-2.20;99.90;;;;;;9711417;22;20205;-88
2023/12/05 06:01:21;;;;;;;20.67;10.67;;;-2.20;99.90;;;;;;9669905;23;20162;-89
2023/12/05 06:05:07;;;;;;;20.40;11.20;;;-2.20;99.90;;;;;;9665744;23;20157;-89
2023/12/05 06:08:53;;;;;;;24.97;12.03;;;-2.20;99.90;;;;;;9663353;23;20159;-89
2023/12/05 06:12:38;;;;;;;25.23;11.57;;;-2.20;99.90;;;;;;9663078;23;20149;-90
2023/12/05 06:16:25;;;;;;;20.90;11.37;;;-2.20;99.90;;;;;;9662550;23;20507;-90
2023/12/05 06:20:11;;;;;;;22.50;11.10;;;-2.20;99.90;;;;;;9663524;23;20149;-90
2023/12/05 06:23:57;;;;;;;21.70;11.90;;;-2.20;99.90;;;;;;9663619;23;20153;-89
2023/12/05 06:27:44;;;;;;;22.90;11.00;;;-2.10;99.90;;;;;;9663387;23;20177;-90
2023/12/05 06:31:30;;;;;;;23.10;11.63;;;-2.20;99.90;;;;;;9664159;23;20219;-89
2023/12/05 06:35:16;;;;;;;22.40;11.70;;;-2.20;99.90;;;;;;9665344;23;20173;-89
2023/12/05 06:39:02;;;;;;;23.40;12.10;;;-2.20;99.90;;;;;;9664532;23;20184;-89
2023/12/05 06:42:48;;;;;;;21.40;10.60;;;-2.20;99.90;;;;;;9665579;23;20155;-90
2023/12/05 06:46:37;;;;;;;22.23;12.10;;;-2.10;99.90;;;;;;9691373;23;20204;-89
2023/12/05 06:50:25;;;;;;;22.47;11.73;;;-2.20;99.90;;;;;;9665010;23;20146;-90
2023/12/05 06:54:10;;;;;;;23.13;12.17;;;-2.20;99.90;;;;;;9664758;23;20148;-89
2023/12/05 06:57:57;;;;;;;23.60;11.40;;;-2.20;99.90;;;;;;9664423;23;20273;-90
2023/12/05 07:01:43;;;;;;;22.33;11.23;;;-2.20;99.90;;;;;;9664407;23;20217;-90
2023/12/05 07:05:28;;;;;;;20.90;10.83;;;-2.20;99.90;;;;;;9664441;23;20177;-89
2023/12/05 07:09:14;;;;;;;20.43;10.83;;;-2.20;99.90;;;;;;9665227;23;20168;-90
2023/12/05 07:13:00;;;;;;;23.73;11.77;;;-2.20;99.90;;;;;;9663188;23;20530;-91
2023/12/05 07:16:46;;;;;;;22.63;11.63;;;-2.20;99.90;;;;;;9662250;23;20641;-91
2023/12/05 07:20:32;;;;;;;20.70;11.53;;;-2.20;99.90;;;;;;9662157;23;20600;-91
2023/12/05 07:24:17;;;;;;;21.90;11.00;;;-2.20;99.90;;;;;;9662254;23;20157;-90
2023/12/05 07:28:03;;;;;;;21.20;10.80;;;-2.20;99.90;;;;;;9662044;23;20204;-91
2023/12/05 07:31:49;;;;;;;21.80;11.30;;;-2.20;99.90;;;;;;9662489;23;20169;-91
2023/12/05 07:35:35;;;;;;;23.90;11.07;;;-2.20;99.90;;;;;;9661436;23;20200;-90
2023/12/05 07:39:21;;;;;;;20.13;10.67;;;-2.10;99.90;;;;;;9662201;23;20183;-90
2023/12/05 07:43:07;;;;;;;22.03;11.23;;;-2.10;99.90;;;;;;9688741;23;20150;-90
2023/12/05 07:46:52;;;;;;;22.33;10.63;;;-2.10;99.90;;;;;;9661657;23;20202;-91
2023/12/05 07:50:38;;;;;;;23.00;11.87;;;-2.10;99.90;;;;;;9662513;23;20503;-90
2023/12/05 07:54:23;;;;;;;21.87;11.60;;;-2.00;99.90;;;;;;9662129;23;20537;-90
2023/12/05 07:58:09;;;;;;;23.87;12.17;;;-2.00;99.90;;;;;;9689058;23;20192;-90
2023/12/05 08:01:55;;;;;;;23.97;11.80;;;-2.00;99.90;;;;;;9688817;23;20206;-91
2023/12/05 08:05:40;;;;;;;23.57;12.53;;;-2.00;99.90;;;;;;9661369;23;20181;-90
2023/12/05 08:09:26;;;;;;;20.20;10.93;;;-1.90;99.90;;;;;;9661839;23;20157;-91
2023/12/05 08:13:12;;;;;;;25.83;12.40;;;-1.90;99.90;;;;;;9661811;23;20162;-90
2023/12/05 08:16:57;;;;;;;24.63;12.20;;;-1.90;99.90;;;;;;9661387;23;20198;-90
2023/12/05 08:20:43;;;;;;;23.90;12.90;;;-1.90;99.90;;;;;;9691309;23;20228;-91
2023/12/05 08:24:28;;;;;;;28.10;13.60;;;-1.90;99.90;;;;;;9664800;23;20157;-90
2023/12/05 08:28:14;;;;;;;26.73;12.90;;;-1.90;99.90;;;;;;9665391;23;20181;-91
2023/12/05 08:32:00;;;;;;;25.97;13.67;;;-1.90;99.90;;;;;;9664997;23;20186;-90
2023/12/05 08:35:45;;;;;;;24.93;13.50;;;-1.90;99.90;;;;;;9664676;23;20184;-90
2023/12/05 08:39:31;;;;;;;24.23;13.73;;;-1.90;99.90;;;;;;9664692;23;20268;-91
2023/12/05 08:43:16;;;;;;;24.27;13.10;;;-2.00;99.90;;;;;;9664706;23;20153;-91
2023/12/05 08:47:02;;;;;;;30.77;14.07;;;-1.90;99.90;;;;;;9663983;23;20177;-91
2023/12/05 08:50:48;;;;;;;25.87;12.87;;;-2.00;99.90;;;;;;9663790;23;20157;-90
2023/12/05 08:54:33;;;;;;;29.87;14.00;;;-2.00;99.90;;;;;;9664333;23;20164;-90
2023/12/05 08:58:19;;;;;;;25.83;13.83;;;-1.90;99.90;;;;;;9664160;23;20212;-91
2023/12/05 09:02:05;;;;;;;29.03;14.67;;;-2.00;99.90;;;;;;9664316;23;20160;-90
2023/12/05 09:05:51;;;;;;;24.53;13.87;;;-1.90;99.90;;;;;;9663791;23;20197;-90
2023/12/05 09:09:36;;;;;;;27.67;14.67;;;-1.90;99.90;;;;;;9691670;23;20165;-90
2023/12/05 09:13:22;;;;;;;27.10;14.63;;;-1.90;99.90;;;;;;9664241;23;20240;-91
2023/12/05 09:17:12;;;;;;;28.10;14.83;;;-1.80;99.90;;;;;;9663676;23;20189;-90
2023/12/05 09:20:57;;;;;;;27.63;14.53;;;-1.90;99.90;;;;;;9691112;23;20151;-90
2023/12/05 09:24:50;;;;;;;25.53;13.70;;;-1.80;99.90;;;;;;9690217;23;20156;-91
2023/12/05 09:28:36;;;;;;;25.57;14.23;;;-1.80;99.90;;;;;;9663656;23;20205;-90
2023/12/05 09:32:22;;;;;;;33.33;14.70;;;-1.80;99.90;;;;;;9663677;23;20165;-91
2023/12/05 09:36:08;;;;;;;27.80;14.83;;;-1.80;99.90;;;;;;9663392;23;20239;-90
2023/12/05 09:39:53;;;;;;;26.57;14.27;;;-1.80;99.90;;;;;;9663608;23;20202;-91
2023/12/05 09:43:39;;;;;;;29.93;15.23;;;-1.70;99.90;;;;;;9664146;23;20621;-90
2023/12/05 09:47:27;;;;;;;30.43;15.43;;;-1.70;99.90;;;;;;9663408;23;20177;-89
2023/12/05 09:51:18;;;;;;;30.10;15.00;;;-1.70;99.90;;;;;;9663798;23;20212;-89
2023/12/05 09:55:05;;;;;;;28.03;14.63;;;-1.70;99.90;;;;;;9663477;23;20154;-90
2023/12/05 09:58:53;;;;;;;28.47;14.57;;;-1.70;99.90;;;;;;9663422;23;20319;-90
2023/12/05 10:02:40;;;;;;;28.53;15.03;;;-1.50;99.90;;;;;;9663923;23;20233;-90
2023/12/05 10:06:26;;;;;;;26.00;14.40;;;-1.70;99.90;;;;;;9663197;23;20197;-90
2023/12/05 10:10:13;;;;;;;32.17;14.93;;;-1.70;99.90;;;;;;9663560;23;20218;-90
2023/12/05 10:13:59;;;;;;;30.97;14.53;;;-1.70;99.90;;;;;;9664033;23;20163;-90
2023/12/05 10:17:46;;;;;;;29.30;15.53;;;-1.70;99.90;;;;;;9663294;23;20188;-90
2023/12/05 10:21:31;;;;;;;29.07;15.30;;;-1.70;99.90;;;;;;9662750;23;20153;-90
2023/12/05 10:25:18;;;;;;;30.33;15.43;;;-1.60;99.90;;;;;;9662909;23;20166;-90
2023/12/05 10:29:03;;;;;;;30.37;14.90;;;-1.60;99.90;;;;;;9663039;23;20229;-90
2023/12/05 10:32:49;;;;;;;29.03;15.03;;;-1.60;99.90;;;;;;9663002;23;20154;-90
2023/12/05 10:36:38;;;;;;;31.03;15.60;;;-1.50;99.90;;;;;;9662662;23;20187;-90
2023/12/05 10:40:24;;;;;;;31.63;15.23;;;-1.50;99.90;;;;;;9662011;23;20155;-90
2023/12/05 10:44:09;;;;;;;28.80;14.53;;;-1.50;99.90;;;;;;9662614;23;20185;-90
2023/12/05 10:47:55;;;;;;;26.07;13.73;;;-1.50;99.90;;;;;;9662776;23;20190;-90
2023/12/05 10:51:41;;;;;;;30.03;14.13;;;-1.50;99.90;;;;;;9662870;23;20166;-90
2023/12/05 10:55:26;;;;;;;31.50;15.53;;;-1.50;99.90;;;;;;9662089;23;20510;-90
2023/12/05 10:59:12;;;;;;;28.37;14.97;;;-1.50;99.90;;;;;;9662586;23;20213;-90
2023/12/05 11:02:58;;;;;;;30.20;15.50;;;-1.50;99.90;;;;;;9662710;23;20153;-91
2023/12/05 11:06:44;;;;;;;35.10;15.57;;;-1.40;99.90;;;;;;9661744;23;20631;-90
2023/12/05 11:10:30;;;;;;;29.37;14.50;;;-1.40;99.90;;;;;;9662201;23;20161;-90
2023/12/05 11:14:16;;;;;;;26.87;14.40;;;-1.30;99.90;;;;;;9689348;23;20658;-90
2023/12/05 11:18:15;;;;;;;30.23;15.53;;;-1.30;99.90;;;;;;9662148;23;20181;-90
2023/12/05 11:22:28;;;;;;;31.53;15.50;;;-1.30;99.90;;;;;;9662288;23;20151;-90
2023/12/05 11:27:01;;;;;;;29.10;15.23;;;-1.20;99.90;;;;;;9688795;23;20168;-90
2023/12/05 11:31:14;;;;;;;28.37;15.37;;;-1.30;99.90;;;;;;9429190;23;20176;-90
2023/12/05 11:35:33;;;;;;;30.97;16.33;;;-1.20;99.90;;;;;;9453675;23;20323;-90
2023/12/05 11:39:20;;;;;;;31.90;15.83;;;-1.20;99.90;;;;;;9429489;23;20250;-90
2023/12/05 11:43:11;;;;;;;30.87;15.50;;;-1.00;99.90;;;;;;9429075;23;20169;-90
2023/12/05 11:46:56;;;;;;;31.10;16.13;;;-1.10;99.90;;;;;;9430795;23;20188;-90
2023/12/05 11:50:43;;;;;;;30.23;15.27;;;-1.10;99.90;;;;;;9429504;23;20167;-89
2023/12/05 11:54:32;;;;;;;36.27;15.43;;;-1.10;99.90;;;;;;9456585;23;20156;-89
2023/12/05 11:58:34;;;;;;;32.83;16.27;;;-1.00;99.90;;;;;;9431325;23;20188;-89
2023/12/05 12:02:32;;;;;;;31.43;15.63;;;-1.00;99.90;;;;;;9659478;22;20171;-90
2023/12/05 12:06:20;;;;;;;30.97;16.80;;;-1.00;99.90;;;;;;9708898;22;20188;-90
2023/12/05 12:10:06;;;;;;;32.23;16.60;;;-0.90;99.90;;;;;;9709989;22;20144;-91
2023/12/05 12:13:53;;;;;;;33.27;16.80;;;-0.90;99.90;;;;;;9688931;23;20162;-89
2023/12/05 12:17:45;;;;;;;33.80;17.40;;;-0.90;99.90;;;;;;9665778;23;20189;-89
2023/12/05 12:21:30;;;;;;;38.60;16.93;;;-0.90;99.90;;;;;;9665352;23;20170;-90
2023/12/05 12:25:17;;;;;;;36.47;17.57;;;-0.80;99.90;;;;;;9664895;23;20164;-90
2023/12/05 12:29:09;;;;;;;38.67;18.03;;;-1.00;99.90;;;;;;9664865;23;20178;-89
2023/12/05 12:32:57;;;;;;;36.27;17.60;;;-0.90;99.90;;;;;;9664327;23;20522;-89
2023/12/05 12:36:43;;;;;;;36.77;18.47;;;-0.90;99.90;;;;;;9664159;23;20183;-90
2023/12/05 12:40:28;;;;;;;37.17;17.43;;;-0.90;99.90;;;;;;9659217;23;20204;-89
2023/12/05 12:44:16;;;;;;;34.87;17.73;;;-0.90;99.90;;;;;;9664356;23;20211;-90
2023/12/05 12:48:04;;;;;;;33.70;17.23;;;-0.70;99.90;;;;;;9664222;23;20207;-89
2023/12/05 12:51:52;;;;;;;35.50;18.03;;;-0.90;99.90;;;;;;9664058;23;20168;-90
2023/12/05 12:55:46;;;;;;;36.93;18.80;;;-0.90;99.90;;;;;;9663801;23;20661;-89
2023/12/05 12:59:31;;;;;;;43.43;19.67;;;-0.90;99.90;;;;;;9663897;23;20180;-90
2023/12/05 13:03:17;;;;;;;40.20;19.17;;;-0.90;99.90;;;;;;9663547;23;20168;-89
2023/12/05 13:07:03;;;;;;;42.17;18.33;;;-0.90;99.90;;;;;;9663840;23;20174;-89
2023/12/05 13:10:49;;;;;;;41.23;19.83;;;-1.00;99.90;;;;;;9664910;23;20663;-89
2023/12/05 13:14:34;;;;;;;38.40;18.47;;;-1.00;99.90;;;;;;9663925;23;20160;-90
2023/12/05 13:18:20;;;;;;;39.03;20.10;;;-1.00;99.90;;;;;;9663598;23;20192;-90
2023/12/05 13:22:07;;;;;;;44.73;20.20;;;-1.00;99.90;;;;;;9663833;23;20175;-90
2023/12/05 13:25:53;;;;;;;45.20;20.13;;;-1.00;99.90;;;;;;9663381;23;20234;-90
2023/12/05 13:29:38;;;;;;;45.97;19.67;;;-1.00;99.90;;;;;;9663107;23;20261;-90
2023/12/05 13:33:24;;;;;;;43.67;19.43;;;-1.00;99.90;;;;;;9663327;23;20159;-90
2023/12/05 13:37:10;;;;;;;45.17;20.00;;;-0.90;99.90;;;;;;9663361;23;20211;-89
2023/12/05 13:40:55;;;;;;;41.30;19.43;;;-1.00;99.90;;;;;;9663516;23;20186;-90
2023/12/05 13:44:43;;;;;;;41.70;20.23;;;-0.90;99.90;;;;;;9663499;23;20157;-89
2023/12/05 13:48:38;;;;;;;42.27;20.77;;;-1.00;99.90;;;;;;9662871;23;20183;-89
2023/12/05 13:52:24;;;;;;;40.10;19.40;;;-1.00;99.90;;;;;;9662205;23;20558;-90
2023/12/05 13:56:16;;;;;;;43.63;20.83;;;-1.00;99.90;;;;;;9663456;23;20257;-90
2023/12/05 14:00:04;;;;;;;48.57;25.07;;;-1.10;99.90;;;;;;9662487;23;20532;-90
2023/12/05 14:03:49;;;;;;;45.20;21.47;;;-1.00;99.90;;;;;;9662984;23;20160;-89
2023/12/05 14:07:40;;;;;;;40.33;20.13;;;-0.90;99.90;;;;;;9663208;23;20188;-90
2023/12/05 14:11:26;;;;;;;41.77;20.87;;;-0.90;99.90;;;;;;9662919;23;20160;-89
2023/12/05 14:15:12;;;;;;;44.60;20.70;;;-0.90;99.90;;;;;;9661724;23;20193;-89
2023/12/05 14:19:12;;;;;;;42.40;19.93;;;-0.90;99.90;;;;;;9662698;23;20189;-90
2023/12/05 14:23:00;;;;;;;43.33;19.30;;;-0.80;99.90;;;;;;9661571;23;20152;-89
2023/12/05 14:26:46;;;;;;;44.00;19.97;;;-0.90;99.90;;;;;;9660553;23;20563;-89
2023/12/05 14:30:31;;;;;;;39.70;19.33;;;-0.90;99.90;;;;;;9661266;23;20174;-88
2023/12/05 14:34:18;;;;;;;42.87;19.77;;;-0.90;99.90;;;;;;9661258;23;20165;-89
2023/12/05 14:38:15;;;;;;;40.97;20.00;;;-0.70;99.90;;;;;;9661900;23;20184;-89
2023/12/05 14:42:05;;;;;;;41.23;19.00;;;-0.80;99.90;;;;;;9661787;23;20156;-88
2023/12/05 14:45:56;;;;;;;42.30;19.37;;;-0.80;99.90;;;;;;9660678;23;20187;-88
2023/12/05 14:49:50;;;;;;;44.67;20.23;;;-0.80;99.90;;;;;;7898827;27;20543;-87
2023/12/05 14:53:35;;;;;;;44.87;20.37;;;-0.80;99.90;;;;;;7895842;28;20274;-87
2023/12/05 14:57:21;;;;;;;46.67;20.50;;;-0.80;99.90;;;;;;7882059;28;20197;-89
2023/12/05 15:01:07;;;;;;;46.20;20.90;;;-0.80;99.90;;;;;;7885666;28;20176;-87
2023/12/05 15:04:55;;;;;;;42.20;20.13;;;-0.90;99.90;;;;;;7893517;28;20302;-88
2023/12/05 15:08:41;;;;;;;44.03;20.23;;;-0.90;99.90;;;;;;7894334;28;20239;-89
2023/12/05 15:12:27;;;;;;;45.47;20.23;;;-0.80;99.90;;;;;;7865227;28;20192;-86
2023/12/05 15:16:12;;;;;;;44.47;19.77;;;-0.80;99.90;;;;;;7888222;28;20283;-88
2023/12/05 15:19:58;;;;;;;45.60;20.83;;;-0.80;99.90;;;;;;7870222;28;20180;-89
2023/12/05 15:23:45;;;;;;;49.88;29.52;;;-0.70;99.90;;;;;;7874986;28;20413;-89
2023/12/05 15:27:34;;;;;;;49.43;23.43;;;-0.80;99.90;;;;;;7883066;28;20211;-89
2023/12/05 15:31:19;;;;;;;45.53;22.27;;;-0.80;99.90;;;;;;7877714;28;20236;-88
2023/12/05 15:35:08;;;;;;;45.47;21.17;;;-0.70;99.90;;;;;;7878794;28;20189;-89
2023/12/05 15:38:53;;;;;;;48.23;21.47;;;-0.80;99.90;;;;;;7887488;28;20236;-88
2023/12/05 15:42:39;;;;;;;46.17;21.57;;;-0.80;99.90;;;;;;7894094;28;20184;-89
2023/12/05 15:46:27;;;;;;;45.30;20.47;;;-0.80;99.90;;;;;;7893180;28;20214;-87
2023/12/05 15:50:15;;;;;;;45.87;21.10;;;-0.80;99.90;;;;;;7894761;28;20247;-89
2023/12/05 15:54:03;;;;;;;45.27;21.37;;;-0.80;99.90;;;;;;7889777;28;20192;-88
2023/12/05 15:57:50;;;;;;;46.67;21.60;;;-0.80;99.90;;;;;;7861651;28;20196;-88
2023/12/05 16:01:36;;;;;;;45.33;21.60;;;-0.80;99.90;;;;;;7852318;28;20228;-89
2023/12/05 16:05:23;;;;;;;43.87;21.07;;;-0.80;99.90;;;;;;7871892;28;20258;-89
2023/12/05 16:09:12;;;;;;;45.23;20.73;;;-0.70;99.90;;;;;;7870954;28;20215;-89
2023/12/05 16:12:58;;;;;;;45.73;21.77;;;-0.70;99.90;;;;;;7872185;28;20724;-88
2023/12/05 16:16:44;;;;;;;42.90;20.27;;;-0.70;99.90;;;;;;7872977;28;20596;-89
2023/12/05 16:20:29;;;;;;;47.83;21.03;;;-0.70;99.90;;;;;;7848455;28;20234;-87
2023/12/05 16:24:15;;;;;;;48.30;22.13;;;-0.70;99.90;;;;;;7856336;28;20217;-87
2023/12/05 16:28:01;;;;;;;48.57;21.57;;;-0.70;99.90;;;;;;7848309;28;20314;-89
2023/12/05 16:31:46;;;;;;;45.00;21.27;;;-0.70;99.90;;;;;;7850274;28;20184;-88
2023/12/05 16:35:33;;;;;;;49.10;21.37;;;-0.70;99.90;;;;;;7862743;28;20289;-87
2023/12/05 16:39:20;;;;;;;53.07;21.47;;;-0.70;99.90;;;;;;7852490;28;20181;-88
2023/12/05 16:43:07;;;;;;;48.00;21.17;;;-0.70;99.90;;;;;;7847583;28;20191;-88
2023/12/05 16:46:53;;;;;;;55.53;22.20;;;-0.70;99.90;;;;;;7867345;28;20215;-88
2023/12/05 16:50:39;;;;;;;49.20;21.60;;;-0.60;99.90;;;;;;7872258;28;20211;-89
2023/12/05 16:54:26;;;;;;;47.40;21.13;;;-0.60;99.90;;;;;;7861914;28;20256;-88
2023/12/05 16:58:12;;;;;;;45.73;20.97;;;-0.50;99.90;;;;;;7871247;28;20191;-88
2023/12/05 17:01:57;;;;;;;51.80;23.33;;;-0.60;99.90;;;;;;7871400;28;20668;-88
2023/12/05 17:05:43;;;;;;;54.43;21.87;;;-0.60;99.90;;;;;;7868990;28;20249;-88
2023/12/05 17:09:31;;;;;;;47.43;22.10;;;-0.60;99.90;;;;;;7853365;28;20205;-88
2023/12/05 17:13:16;;;;;;;48.00;22.00;;;-0.70;99.90;;;;;;7855188;28;20423;-88
2023/12/05 17:17:02;;;;;;;50.70;22.53;;;-0.70;99.90;;;;;;7850820;28;20245;-88
2023/12/05 17:20:48;;;;;;;50.73;22.27;;;-0.70;99.90;;;;;;7870056;28;20516;-88
2023/12/05 17:24:34;;;;;;;47.20;22.47;;;-0.70;99.90;;;;;;7855374;28;20289;-87
2023/12/05 17:28:19;;;;;;;47.83;20.80;;;-0.70;99.90;;;;;;7866730;28;20205;-88
2023/12/05 17:32:05;;;;;;;49.90;21.83;;;-0.70;99.90;;;;;;7868081;28;20187;-88
2023/12/05 17:35:51;;;;;;;48.80;23.00;;;-0.70;99.90;;;;;;7853764;28;20219;-88
2023/12/05 17:39:36;;;;;;;47.97;21.47;;;-0.70;99.90;;;;;;7860659;28;20674;-87
2023/12/05 17:43:24;;;;;;;52.43;22.07;;;-0.70;99.90;;;;;;7850563;28;20529;-88
2023/12/05 17:47:09;;;;;;;51.10;22.57;;;-0.70;99.90;;;;;;7838168;28;20215;-88
2023/12/05 17:50:55;;;;;;;52.47;22.77;;;-0.70;99.90;;;;;;7847034;28;20188;-88
2023/12/05 17:54:40;;;;;;;51.40;23.27;;;-0.70;99.90;;;;;;7868318;28;20212;-88
2023/12/05 17:58:26;;;;;;;51.90;23.60;;;-0.70;99.90;;;;;;7861803;28;20649;-88
2023/12/05 18:02:12;;;;;;;57.63;23.60;;;-0.70;99.90;;;;;;7860764;28;20665;-87
2023/12/05 18:05:57;;;;;;;58.17;24.37;;;-0.70;99.90;;;;;;7855018;28;20205;-88
2023/12/05 18:09:45;;;;;;;60.33;24.47;;;-0.80;99.90;;;;;;7855016;28;20208;-88
2023/12/05 18:13:30;;;;;;;57.57;23.63;;;-0.80;99.90;;;;;;7852808;28;20183;-88
2023/12/05 18:22:21;;;;;;;57.57;24.63;;;-0.80;99.90;;;;;;7680529;28;20197;-88
2023/12/05 18:26:06;;;;;;;52.63;23.10;;;-0.80;99.90;;;;;;7665125;29;20220;-88
2023/12/05 18:29:54;;;;;;;52.33;22.70;;;-0.90;99.90;;;;;;7667215;29;20219;-88
2023/12/05 18:33:40;;;;;;;56.20;23.63;;;-0.80;99.90;;;;;;7667099;29;20619;-88
2023/12/05 18:37:25;;;;;;;54.90;22.30;;;-0.80;99.90;;;;;;7666323;29;20291;-88
2023/12/05 18:41:18;;;;;;;53.70;23.40;;;-0.80;99.90;;;;;;7667000;29;20193;-88
2023/12/05 18:45:04;;;;;;;55.37;23.23;;;-0.80;99.90;;;;;;7666274;29;20220;-88
2023/12/05 18:48:50;;;;;;;55.43;22.37;;;-0.80;99.90;;;;;;7666519;29;20219;-88
2023/12/05 18:52:36;;;;;;;49.23;22.13;;;-0.80;99.90;;;;;;7666421;29;20192;-87
2023/12/05 18:56:22;;;;;;;50.03;21.80;;;-0.80;99.90;;;;;;7650850;29;20214;-88
2023/12/05 19:00:08;;;;;;;54.80;22.77;;;-0.90;99.90;;;;;;7847336;28;20198;-87
2023/12/05 19:03:54;;;;;;;53.33;22.60;;;-0.90;99.90;;;;;;7843583;28;20180;-88
2023/12/05 19:07:43;;;;;;;57.00;23.50;;;-0.90;99.90;;;;;;7862293;28;20295;-88
2023/12/05 19:11:38;;;;;;;59.83;23.33;;;-0.90;99.90;;;;;;7868420;28;20262;-88
2023/12/05 19:15:24;;;;;;;53.23;23.13;;;-0.90;99.90;;;;;;7868064;28;20196;-89
2023/12/05 19:19:13;;;;;;;53.17;23.93;;;-0.90;99.90;;;;;;7868163;28;20710;-87